createdAt,value
2018-02-04T00:00:23.494Z,97761
2018-02-04T00:02:51.657Z,97768
2018-02-04T00:05:19.845Z,97760
2018-02-04T00:07:47.997Z,97773
2018-02-04T00:10:16.129Z,97769
2018-02-04T00:12:44.280Z,97767
2018-02-04T00:15:12.417Z,97768
2018-02-04T00:17:40.577Z,97757
2018-02-04T00:20:09.476Z,97771
2018-02-04T00:22:40.409Z,97766
2018-02-04T00:25:08.578Z,97777
2018-02-04T00:27:36.736Z,97777
2018-02-04T00:30:05.655Z,97777
2018-02-04T00:32:33.796Z,97772
2018-02-04T00:35:02.721Z,97782
2018-02-04T00:37:30.920Z,97779
2018-02-04T00:40:07.800Z,97779
2018-02-04T00:42:35.933Z,97770
2018-02-04T00:45:04.861Z,97771
2018-02-04T00:47:32.996Z,97781
2018-02-04T00:50:01.921Z,97781
2018-02-04T00:52:30.061Z,97779
2018-02-04T00:54:58.228Z,97787
2018-02-04T00:57:27.142Z,97783
2018-02-04T01:00:02.610Z,97791
2018-02-04T01:02:30.746Z,97792
2018-02-04T01:04:58.911Z,97795
2018-02-04T01:07:27.812Z,97797
2018-02-04T01:09:56.944Z,97803
2018-02-04T01:12:25.082Z,97797
2018-02-04T01:14:53.245Z,97809
2018-02-04T01:17:21.390Z,97795
2018-02-04T01:19:54.742Z,97810
2018-02-04T01:22:22.884Z,97811
2018-02-04T01:24:51.809Z,97819
2018-02-04T01:27:19.944Z,97824
2018-02-04T01:30:00.401Z,97822
2018-02-04T01:32:29.317Z,97817
2018-02-04T01:34:57.448Z,97828
2018-02-04T01:37:25.612Z,97821
2018-02-04T01:40:01.325Z,97815
2018-02-04T01:42:29.477Z,97827
2018-02-04T01:44:57.616Z,97819
2018-02-04T01:47:25.772Z,97814
2018-02-04T01:49:55.856Z,97824
2018-02-04T01:52:24.015Z,97828
2018-02-04T01:54:52.160Z,97821
2018-02-04T01:57:20.356Z,97829
2018-02-04T01:59:48.501Z,97827
2018-02-04T02:02:16.648Z,97817
2018-02-04T02:04:44.794Z,97814
2018-02-04T02:07:12.952Z,97820
2018-02-04T02:09:41.140Z,97834
2018-02-04T02:12:09.321Z,97831
2018-02-04T02:14:37.456Z,97822
2018-02-04T02:17:05.592Z,97836
2018-02-04T02:19:41.027Z,97840
2018-02-04T02:22:09.162Z,97837
2018-02-04T02:24:37.313Z,97834
2018-02-04T02:27:06.232Z,97831
2018-02-04T02:29:47.819Z,97838
2018-02-04T02:32:16.009Z,97841
2018-02-04T02:34:44.893Z,97842
2018-02-04T02:37:13.032Z,97841
2018-02-04T02:39:49.952Z,97844
2018-02-04T02:42:18.089Z,97843
2018-02-04T02:44:47.013Z,97844
2018-02-04T02:47:15.145Z,97845
2018-02-04T02:49:52.186Z,97840
2018-02-04T02:52:20.321Z,97847
2018-02-04T02:54:48.476Z,97840
2018-02-04T02:57:17.373Z,97857
2018-02-04T02:59:57.668Z,97855
2018-02-04T03:02:25.813Z,97859
2018-02-04T03:04:53.965Z,97861
2018-02-04T03:07:22.873Z,97850
2018-02-04T03:09:51.025Z,97865
2018-02-04T03:12:19.946Z,97857
2018-02-04T03:14:48.113Z,97867
2018-02-04T03:17:16.250Z,97859
2018-02-04T03:19:45.421Z,97873
2018-02-04T03:22:13.548Z,97875
2018-02-04T03:24:42.466Z,97879
2018-02-04T03:27:10.602Z,97872
2018-02-04T03:29:47.022Z,97876
2018-02-04T03:32:15.156Z,97869
2018-02-04T03:34:43.298Z,97871
2018-02-04T03:37:11.457Z,97876
2018-02-04T03:39:39.584Z,97882
2018-02-04T03:42:07.752Z,97879
2018-02-04T03:44:35.894Z,97881
2018-02-04T03:47:04.049Z,97886
2018-02-04T03:49:32.188Z,97886
2018-02-04T03:52:00.346Z,97896
2018-02-04T03:54:28.565Z,97903
2018-02-04T03:56:56.712Z,97900
2018-02-04T03:59:25.800Z,97899
2018-02-04T04:01:53.958Z,97897
2018-02-04T04:04:22.106Z,97900
2018-02-04T04:06:51.038Z,97902
2018-02-04T04:09:26.594Z,97900
2018-02-04T04:12:02.660Z,97901
2018-02-04T04:14:30.801Z,97906
2018-02-04T04:16:58.960Z,97910
2018-02-04T04:19:27.874Z,97901
2018-02-04T04:21:56.035Z,97906
2018-02-04T04:24:24.178Z,97913
2018-02-04T04:26:52.334Z,97910
2018-02-04T04:29:21.400Z,97908
2018-02-04T04:31:49.561Z,97910
2018-02-04T04:34:17.692Z,97919
2018-02-04T04:36:45.829Z,97906
2018-02-04T04:39:18.613Z,97918
2018-02-04T04:41:46.757Z,97925
2018-02-04T04:44:14.904Z,97920
2018-02-04T04:46:43.809Z,97914
2018-02-04T04:49:12.036Z,97930
2018-02-04T04:51:40.174Z,97923
2018-02-04T04:54:08.337Z,97925
2018-02-04T04:56:36.474Z,97923
2018-02-04T04:59:09.017Z,97923
2018-02-04T05:01:37.158Z,97931
2018-02-04T05:04:05.316Z,97935
2018-02-04T05:06:34.273Z,97947
2018-02-04T05:09:11.185Z,97946
2018-02-04T05:11:40.141Z,97962
2018-02-04T05:14:08.410Z,97963
2018-02-04T05:16:36.579Z,97959
2018-02-04T05:19:05.773Z,97970
2018-02-04T05:21:34.022Z,97969
2018-02-04T05:24:02.200Z,97967
2018-02-04T05:26:30.365Z,97967
2018-02-04T05:29:00.609Z,97973
2018-02-04T05:31:28.801Z,97978
2018-02-04T05:33:56.943Z,97981
2018-02-04T05:36:25.101Z,97984
2018-02-04T05:38:54.225Z,97988
2018-02-04T05:41:22.391Z,97993
2018-02-04T05:43:50.533Z,97993
2018-02-04T05:46:18.702Z,97993
2018-02-04T05:48:46.844Z,98006
2018-02-04T05:51:15.001Z,98006
2018-02-04T05:53:43.136Z,98005
2018-02-04T05:56:11.293Z,98009
2018-02-04T05:58:39.445Z,98011
2018-02-04T06:01:07.600Z,98026
2018-02-04T06:03:35.746Z,98027
2018-02-04T06:06:03.921Z,98025
2018-02-04T06:08:32.069Z,98042
2018-02-04T06:11:00.227Z,98035
2018-02-04T06:13:29.149Z,98048
2018-02-04T06:15:57.317Z,98045
2018-02-04T06:18:42.261Z,98053
2018-02-04T06:21:11.197Z,98056
2018-02-04T06:23:39.336Z,98052
2018-02-04T06:26:08.247Z,98054
2018-02-04T06:28:37.386Z,98053
2018-02-04T06:31:05.525Z,98047
2018-02-04T06:33:33.685Z,98056
2018-02-04T06:36:01.821Z,98059
2018-02-04T06:38:31.909Z,98065
2018-02-04T06:41:00.079Z,98063
2018-02-04T06:43:28.233Z,98068
2018-02-04T06:45:56.389Z,98082
2018-02-04T06:48:25.516Z,98095
2018-02-04T06:50:53.652Z,98092
2018-02-04T06:53:21.804Z,98106
2018-02-04T06:55:50.717Z,98091
2018-02-04T06:58:18.873Z,98101
2018-02-04T07:00:47.781Z,98099
2018-02-04T07:03:15.962Z,98105
2018-02-04T07:05:44.100Z,98121
2018-02-04T07:08:12.241Z,98118
2018-02-04T07:10:40.425Z,98124
2018-02-04T07:13:08.561Z,98127
2018-02-04T07:15:36.717Z,98115
2018-02-04T07:18:04.860Z,98126
2018-02-04T07:20:33.009Z,98126
2018-02-04T07:23:01.148Z,98127
2018-02-04T07:25:29.314Z,98129
2018-02-04T07:27:59.456Z,98133
2018-02-04T07:30:27.633Z,98137
2018-02-04T07:32:55.776Z,98132
2018-02-04T07:35:23.941Z,98132
2018-02-04T07:37:56.349Z,98143
2018-02-04T07:40:24.535Z,98145
2018-02-04T07:42:52.668Z,98151
2018-02-04T07:45:20.829Z,98157
2018-02-04T07:47:50.681Z,98159
2018-02-04T07:50:18.890Z,98165
2018-02-04T07:52:47.040Z,98168
2018-02-04T07:55:15.209Z,98175
2018-02-04T07:57:53.035Z,98172
2018-02-04T08:00:21.200Z,98178
2018-02-04T08:02:49.357Z,98177
2018-02-04T08:05:17.493Z,98167
2018-02-04T08:08:07.514Z,98179
2018-02-04T08:10:36.406Z,98179
2018-02-04T08:13:04.561Z,98170
2018-02-04T08:15:32.689Z,98180
2018-02-04T08:18:02.768Z,98186
2018-02-04T08:20:30.901Z,98185
2018-02-04T08:22:59.814Z,98194
2018-02-04T08:25:27.949Z,98197
2018-02-04T08:27:58.125Z,98197
2018-02-04T08:30:26.254Z,98198
2018-02-04T08:32:55.175Z,98194
2018-02-04T08:35:23.310Z,98194
2018-02-04T08:37:56.758Z,98205
2018-02-04T08:40:24.893Z,98212
2018-02-04T08:42:53.813Z,98208
2018-02-04T08:45:21.948Z,98217
2018-02-04T08:47:50.840Z,98217
2018-02-04T08:50:19.758Z,98223
2018-02-04T08:52:47.889Z,98221
2018-02-04T08:55:16.042Z,98226
2018-02-04T08:57:48.169Z,98225
2018-02-04T09:00:16.322Z,98230
2018-02-04T09:02:45.213Z,98240
2018-02-04T09:05:13.369Z,98242
2018-02-04T09:07:42.273Z,98231
2018-02-04T09:10:11.189Z,98245
2018-02-04T09:12:39.346Z,98247
2018-02-04T09:15:07.505Z,98245
2018-02-04T09:17:36.424Z,98257
2018-02-04T09:20:04.653Z,98240
2018-02-04T09:22:32.853Z,98249
2018-02-04T09:25:01.845Z,98253
2018-02-04T09:27:30.081Z,98258
2018-02-04T09:30:01.570Z,98259
2018-02-04T09:32:30.517Z,98267
2018-02-04T09:34:58.750Z,98271
2018-02-04T09:37:26.989Z,98269
2018-02-04T09:39:55.225Z,98272
2018-02-04T09:42:23.491Z,98264
2018-02-04T09:44:51.693Z,98281
2018-02-04T09:47:19.846Z,98272
2018-02-04T09:49:48.933Z,98283
2018-02-04T09:52:17.086Z,98288
2018-02-04T09:54:45.221Z,98281
2018-02-04T09:57:13.371Z,98292
2018-02-04T09:59:53.402Z,98298
2018-02-04T10:02:22.330Z,98301
2018-02-04T10:04:50.469Z,98306
2018-02-04T10:07:18.617Z,98309
2018-02-04T10:09:47.530Z,98310
2018-02-04T10:12:15.676Z,98299
2018-02-04T10:14:43.849Z,98304
2018-02-04T10:17:12.001Z,98317
2018-02-04T10:19:54.321Z,98321
2018-02-04T10:22:23.243Z,98316
2018-02-04T10:24:51.372Z,98316
2018-02-04T10:27:19.517Z,98317
2018-02-04T10:29:51.340Z,98329
2018-02-04T10:32:19.495Z,98327
2018-02-04T10:34:48.396Z,98325
2018-02-04T10:37:16.549Z,98328
2018-02-04T10:39:52.537Z,98333
2018-02-04T10:42:20.689Z,98338
2018-02-04T10:44:49.590Z,98337
2018-02-04T10:47:17.721Z,98334
2018-02-04T10:49:45.871Z,98347
2018-02-04T10:52:14.005Z,98349
2018-02-04T10:54:42.161Z,98345
2018-02-04T10:57:11.052Z,98345
2018-02-04T10:59:40.916Z,98358
2018-02-04T11:02:09.048Z,98352
2018-02-04T11:04:37.196Z,98351
2018-02-04T11:07:06.105Z,98349
2018-02-04T11:09:48.964Z,98349
2018-02-04T11:12:17.101Z,98355
2018-02-04T11:14:46.139Z,98354
2018-02-04T11:17:14.357Z,98353
2018-02-04T11:19:46.882Z,98363
2018-02-04T11:22:15.121Z,98367
2018-02-04T11:24:44.064Z,98357
2018-02-04T11:27:12.229Z,98362
2018-02-04T11:29:40.372Z,98363
2018-02-04T11:32:24.257Z,98364
2018-02-04T11:34:52.393Z,98361
2018-02-04T11:37:20.540Z,98374
2018-02-04T11:39:53.157Z,98375
2018-02-04T11:42:22.071Z,98374
2018-02-04T11:44:50.213Z,98371
2018-02-04T11:47:18.346Z,98370
2018-02-04T11:49:47.317Z,98376
2018-02-04T11:52:15.449Z,98379
2018-02-04T11:54:43.617Z,98387
2018-02-04T11:57:11.760Z,98382
2018-02-04T11:59:59.492Z,98377
2018-02-04T12:02:28.404Z,98385
2018-02-04T12:04:56.536Z,98384
2018-02-04T12:07:24.689Z,98387
2018-02-04T12:09:57.225Z,98387
2018-02-04T12:12:25.425Z,98393
2018-02-04T12:14:53.597Z,98391
2018-02-04T12:17:21.750Z,98387
2018-02-04T12:19:50.870Z,98389
2018-02-04T12:22:19.048Z,98399
2018-02-04T12:24:47.189Z,98402
2018-02-04T12:27:15.356Z,98407
2018-02-04T12:29:54.299Z,98399
2018-02-04T12:32:22.449Z,98401
2018-02-04T12:34:51.348Z,98408
2018-02-04T12:37:19.513Z,98402
2018-02-04T12:39:49.373Z,98402
2018-02-04T12:42:17.509Z,98405
2018-02-04T12:44:45.745Z,98410
2018-02-04T12:47:13.891Z,98414
2018-02-04T12:49:47.359Z,98414
2018-02-04T12:52:15.582Z,98418
2018-02-04T12:54:43.827Z,98424
2018-02-04T12:57:12.063Z,98425
2018-02-04T12:59:42.050Z,98428
2018-02-04T13:02:10.235Z,98438
2018-02-04T13:04:38.515Z,98430
2018-02-04T13:07:06.829Z,98437
2018-02-04T13:09:47.160Z,98435
2018-02-04T13:12:16.125Z,98442
2018-02-04T13:14:44.357Z,98436
2018-02-04T13:17:15.537Z,98438
2018-02-04T13:19:49.172Z,98442
2018-02-04T13:22:18.125Z,98446
2018-02-04T13:24:46.346Z,98441
2018-02-04T13:27:15.255Z,98450
2018-02-04T13:29:50.835Z,98455
2018-02-04T13:32:19.007Z,98456
2018-02-04T13:34:49.342Z,98459
2018-02-04T13:37:17.503Z,98456
2018-02-04T13:39:47.698Z,98464
2018-02-04T13:42:15.909Z,98462
2018-02-04T13:44:44.382Z,98472
2018-02-04T13:47:12.527Z,98477
2018-02-04T13:49:42.408Z,98477
2018-02-04T13:52:10.573Z,98477
2018-02-04T13:54:38.726Z,98478
2018-02-04T13:57:06.887Z,98471
2018-02-04T13:59:35.025Z,98489
2018-02-04T14:02:03.184Z,98489
2018-02-04T14:04:32.082Z,98486
2018-02-04T14:07:00.245Z,98485
2018-02-04T14:09:31.101Z,98483
2018-02-04T14:11:59.899Z,98486
2018-02-04T14:14:28.295Z,98500
2018-02-04T14:16:56.453Z,98492
2018-02-04T14:19:25.600Z,98500
2018-02-04T14:21:54.599Z,98504
2018-02-04T14:24:23.552Z,98500
2018-02-04T14:26:51.744Z,98498
2018-02-04T14:29:31.240Z,98505
2018-02-04T14:31:59.424Z,98499
2018-02-04T14:34:27.588Z,98502
2018-02-04T14:36:55.741Z,98512
2018-02-04T14:39:30.185Z,98500
2018-02-04T14:41:58.339Z,98512
2018-02-04T14:44:26.481Z,98508
2018-02-04T14:46:55.069Z,98516
2018-02-04T14:49:23.220Z,98517
2018-02-04T14:51:51.417Z,98523
2018-02-04T14:54:20.328Z,98527
2018-02-04T14:56:48.493Z,98534
2018-02-04T14:59:18.351Z,98529
2018-02-04T15:01:46.487Z,98536
2018-02-04T15:04:14.686Z,98546
2018-02-04T15:06:42.821Z,98545
2018-02-04T15:09:12.686Z,98541
2018-02-04T15:11:40.817Z,98553
2018-02-04T15:14:08.965Z,98562
2018-02-04T15:16:37.107Z,98561
2018-02-04T15:19:07.229Z,98564
2018-02-04T15:21:35.413Z,98581
2018-02-04T15:24:03.621Z,98579
2018-02-04T15:26:32.529Z,98572
2018-02-04T15:29:00.759Z,98581
2018-02-04T15:31:29.016Z,98578
2018-02-04T15:33:57.272Z,98580
2018-02-04T15:36:26.473Z,98585
2018-02-04T15:39:00.257Z,98592
2018-02-04T15:41:28.465Z,98600
2018-02-04T15:43:56.649Z,98605
2018-02-04T15:46:24.914Z,98607
2018-02-04T15:48:56.646Z,98607
2018-02-04T15:51:24.854Z,98617
2018-02-04T15:53:53.046Z,98608
2018-02-04T15:56:21.245Z,98619
2018-02-04T15:58:51.150Z,98625
2018-02-04T16:01:20.183Z,98625
2018-02-04T16:03:48.375Z,98617
2018-02-04T16:06:16.641Z,98628
2018-02-04T16:08:44.837Z,98623
2018-02-04T16:11:13.021Z,98640
2018-02-04T16:13:41.221Z,98631
2018-02-04T16:16:10.229Z,98638
2018-02-04T16:18:38.564Z,98635
2018-02-04T16:21:06.761Z,98648
2018-02-04T16:23:35.009Z,98651
2018-02-04T16:26:03.210Z,98656
2018-02-04T16:28:33.090Z,98661
2018-02-04T16:31:01.355Z,98651
2018-02-04T16:33:29.538Z,98656
2018-02-04T16:35:57.750Z,98662
2018-02-04T16:38:28.713Z,98662
2018-02-04T16:40:56.929Z,98659
2018-02-04T16:43:25.072Z,98662
2018-02-04T16:45:53.234Z,98669
2018-02-04T16:48:29.035Z,98679
2018-02-04T16:50:57.239Z,98679
2018-02-04T16:53:26.157Z,98683
2018-02-04T16:55:54.289Z,98679
2018-02-04T16:58:26.441Z,98686
2018-02-04T17:00:54.569Z,98692
2018-02-04T17:03:22.730Z,98693
2018-02-04T17:05:50.869Z,98691
2018-02-04T17:08:22.322Z,98690
2018-02-04T17:10:58.048Z,98702
2018-02-04T17:13:26.189Z,98711
2018-02-04T17:15:54.320Z,98705
2018-02-04T17:18:22.498Z,98703
2018-02-04T17:20:50.633Z,98718
2018-02-04T17:23:18.812Z,98725
2018-02-04T17:25:46.953Z,98718
2018-02-04T17:28:15.105Z,98727
2018-02-04T17:30:51.821Z,98737
2018-02-04T17:33:19.969Z,98733
2018-02-04T17:35:48.101Z,98729
2018-02-04T17:38:16.245Z,98741
2018-02-04T17:40:44.377Z,98738
2018-02-04T17:43:12.535Z,98747
2018-02-04T17:45:41.433Z,98743
2018-02-04T17:48:09.631Z,98753
2018-02-04T17:50:37.770Z,98751
2018-02-04T17:53:06.693Z,98755
2018-02-04T17:55:34.826Z,98755
2018-02-04T17:58:11.919Z,98761
2018-02-04T18:00:40.817Z,98760
2018-02-04T18:03:09.754Z,98766
2018-02-04T18:05:37.932Z,98764
2018-02-04T18:08:06.057Z,98770
2018-02-04T18:10:34.953Z,98765
2018-02-04T18:13:03.106Z,98774
2018-02-04T18:15:32.072Z,98773
2018-02-04T18:18:02.250Z,98778
2018-02-04T18:20:30.406Z,98778
2018-02-04T18:22:58.609Z,98783
2018-02-04T18:25:26.814Z,98778
2018-02-04T18:27:55.962Z,98788
2018-02-04T18:30:24.117Z,98794
2018-02-04T18:32:53.056Z,98794
2018-02-04T18:35:21.216Z,98799
2018-02-04T18:37:49.350Z,98803
2018-02-04T18:40:18.312Z,98798
2018-02-04T18:42:46.443Z,98803
2018-02-04T18:45:14.588Z,98793
2018-02-04T18:47:43.484Z,98803
2018-02-04T18:50:12.408Z,98809
2018-02-04T18:52:41.361Z,98813
2018-02-04T18:55:10.348Z,98810
2018-02-04T18:57:39.253Z,98820
2018-02-04T19:00:08.265Z,98814
2018-02-04T19:02:37.133Z,98821
2018-02-04T19:05:06.034Z,98829
2018-02-04T19:07:34.201Z,98827
2018-02-04T19:10:04.045Z,98828
2018-02-04T19:12:32.192Z,98837
2018-02-04T19:15:00.321Z,98826
2018-02-04T19:17:28.479Z,98838
2018-02-04T19:20:07.997Z,98830
2018-02-04T19:22:36.225Z,98832
2018-02-04T19:25:04.362Z,98828
2018-02-04T19:27:32.507Z,98844
2018-02-04T19:30:00.641Z,98833
2018-02-04T19:32:28.801Z,98843
2018-02-04T19:34:56.993Z,98855
2018-02-04T19:37:25.157Z,98852
2018-02-04T19:40:10.263Z,98868
2018-02-04T19:42:38.480Z,98863
2018-02-04T19:45:06.621Z,98863
2018-02-04T19:47:34.777Z,98869
2018-02-04T19:50:03.697Z,98874
2018-02-04T19:52:31.903Z,98869
2018-02-04T19:55:00.040Z,98887
2018-02-04T19:57:28.976Z,98888
2018-02-04T20:00:31.945Z,98887
2018-02-04T20:03:00.176Z,98892
2018-02-04T20:05:28.335Z,98893
2018-02-04T20:07:58.256Z,98901
2018-02-04T20:10:27.209Z,98898
2018-02-04T20:12:55.346Z,98910
2018-02-04T20:15:23.530Z,98913
2018-02-04T20:17:51.692Z,98912
2018-02-04T20:20:19.837Z,98918
2018-02-04T20:22:48.761Z,98916
2018-02-04T20:25:16.948Z,98921
2018-02-04T20:27:45.113Z,98919
2018-02-04T20:30:13.309Z,98928
2018-02-04T20:32:59.285Z,98924
2018-02-04T20:35:27.424Z,98917
2018-02-04T20:37:55.627Z,98919
2018-02-04T20:40:23.769Z,98932
2018-02-04T20:42:51.918Z,98926
2018-02-04T20:45:20.142Z,98928
2018-02-04T20:47:51.944Z,98929
2018-02-04T20:50:20.152Z,98934
2018-02-04T20:52:48.297Z,98936
2018-02-04T20:55:17.233Z,98936
2018-02-04T20:57:45.370Z,98930
2018-02-04T21:00:14.314Z,98943
2018-02-04T21:02:42.478Z,98949
2018-02-04T21:05:10.704Z,98948
2018-02-04T21:07:38.845Z,98949
2018-02-04T21:10:07.037Z,98952
2018-02-04T21:12:35.209Z,98965
2018-02-04T21:15:03.375Z,98960
2018-02-04T21:17:31.570Z,98958
2018-02-04T21:19:59.721Z,98971
2018-02-04T21:22:27.864Z,98966
2018-02-04T21:24:56.077Z,98964
2018-02-04T21:27:24.229Z,98972
2018-02-04T21:30:01.376Z,98973
2018-02-04T21:32:29.512Z,98977
2018-02-04T21:34:57.721Z,98977
2018-02-04T21:37:25.867Z,98986
2018-02-04T21:39:55.745Z,98984
2018-02-04T21:42:23.881Z,98984
2018-02-04T21:44:52.096Z,98988
2018-02-04T21:47:20.290Z,98992
2018-02-04T21:49:53.463Z,98995
2018-02-04T21:52:21.601Z,98992
2018-02-04T21:54:49.813Z,98987
2018-02-04T21:57:17.994Z,99006
2018-02-04T21:59:47.076Z,99000
2018-02-04T22:02:15.255Z,99000
2018-02-04T22:04:43.450Z,98997
2018-02-04T22:07:11.581Z,99008
2018-02-04T22:09:49.293Z,99013
2018-02-04T22:12:17.429Z,99014
2018-02-04T22:14:45.648Z,99012
2018-02-04T22:17:13.793Z,99014
2018-02-04T22:19:41.991Z,99021
2018-02-04T22:22:10.134Z,99023
2018-02-04T22:24:38.313Z,99018
2018-02-04T22:27:07.284Z,99026
2018-02-04T22:29:53.180Z,99023
2018-02-04T22:32:21.358Z,99026
2018-02-04T22:34:50.269Z,99024
2018-02-04T22:37:18.409Z,99028
2018-02-04T22:39:59.800Z,99034
2018-02-04T22:42:27.943Z,99031
2018-02-04T22:44:56.882Z,99035
2018-02-04T22:47:25.034Z,99031
2018-02-04T22:50:07.961Z,99029
2018-02-04T22:52:36.126Z,99051
2018-02-04T22:55:04.318Z,99041
2018-02-04T22:57:32.459Z,99048
2018-02-04T23:00:01.360Z,99052
2018-02-04T23:02:29.529Z,99053
2018-02-04T23:04:58.433Z,99064
2018-02-04T23:07:26.591Z,99055
2018-02-04T23:10:10.741Z,99065
2018-02-04T23:12:39.016Z,99075
2018-02-04T23:15:07.936Z,99072
2018-02-04T23:17:36.093Z,99073
2018-02-04T23:20:04.229Z,99079
2018-02-04T23:22:32.395Z,99071
2018-02-04T23:25:00.537Z,99072
2018-02-04T23:27:28.705Z,99084
2018-02-04T23:29:57.797Z,99080
2018-02-04T23:32:25.957Z,99079
2018-02-04T23:34:54.112Z,99081
2018-02-04T23:37:23.034Z,99072
2018-02-04T23:39:51.176Z,99072
2018-02-04T23:42:20.145Z,99088
2018-02-04T23:44:48.281Z,99084
2018-02-04T23:47:16.421Z,99084
2018-02-04T23:49:44.587Z,99082
2018-02-04T23:52:13.489Z,99099
2018-02-04T23:54:41.640Z,99094
2018-02-04T23:57:10.545Z,99103
2018-02-04T23:59:52.304Z,99104
